Time;durP1;ratioP1;P1;durP2;ratioP2;P2;SDS_P1;SDS_P2;PMS_P1;PMS_P2;Temp;Humidity;BMP_temperature;BMP_pressure;BME280_temperature;BME280_humidity;BME280_pressure;Samples;Min_cycle;Max_cycle;Signal;HPM_P1;HPM_P2
2022/06/14 00:01:28;;;;;;;2.67;1.67;;;12.50;99.90;;;;;;5069926;28;20285;-74
2022/06/14 00:04:13;;;;;;;5.13;1.80;;;12.50;99.90;;;;;;5054117;28;20274;-74
2022/06/14 00:06:58;;;;;;;3.10;1.80;;;12.40;99.90;;;;;;5050173;28;20201;-74
2022/06/14 00:09:43;;;;;;;4.00;1.63;;;12.40;99.90;;;;;;5054582;28;20279;-74
2022/06/14 00:12:27;;;;;;;3.43;1.80;;;12.40;99.90;;;;;;5054347;28;20191;-73
2022/06/14 00:15:12;;;;;;;4.60;2.20;;;12.40;99.90;;;;;;5048085;28;20179;-75
2022/06/14 00:18:04;;;;;;;5.60;2.07;;;12.30;99.90;;;;;;5045917;28;20231;-74
2022/06/14 00:20:52;;;;;;;2.13;1.73;;;12.20;99.90;;;;;;5055946;28;20248;-74
2022/06/14 00:23:37;;;;;;;5.37;2.07;;;12.20;99.90;;;;;;5048549;28;20202;-73
2022/06/14 00:26:22;;;;;;;3.13;2.00;;;12.20;99.90;;;;;;5052847;28;20177;-73
2022/06/14 00:29:08;;;;;;;4.67;1.90;;;12.20;99.90;;;;;;5067157;28;20229;-75
2022/06/14 00:31:53;;;;;;;4.13;2.10;;;12.10;99.90;;;;;;5058497;28;20185;-73
2022/06/14 00:34:38;;;;;;;5.20;2.03;;;12.10;99.90;;;;;;5050329;28;20262;-73
2022/06/14 00:37:22;;;;;;;4.13;2.03;;;12.00;99.90;;;;;;5056055;28;20186;-74
2022/06/14 00:40:08;;;;;;;10.17;2.23;;;12.00;99.90;;;;;;5056386;28;20186;-75
2022/06/14 00:42:52;;;;;;;6.50;2.50;;;11.90;99.90;;;;;;5052510;28;20549;-74
2022/06/14 00:45:36;;;;;;;6.83;2.10;;;11.80;99.90;;;;;;5072143;28;20181;-74
2022/06/14 00:48:31;;;;;;;4.97;2.30;;;11.80;99.90;;;;;;5054746;28;20276;-73
2022/06/14 00:51:26;;;;;;;4.10;2.20;;;11.80;99.90;;;;;;5053989;28;20206;-74
2022/06/14 00:54:14;;;;;;;6.87;2.30;;;11.70;99.90;;;;;;5058089;28;20300;-74
2022/06/14 00:57:04;;;;;;;2.97;2.33;;;11.70;99.90;;;;;;5056746;28;20185;-74
2022/06/14 00:59:59;;;;;;;9.73;2.60;;;11.60;99.90;;;;;;5053145;28;20206;-74
2022/06/14 01:02:50;;;;;;;4.50;2.20;;;11.60;99.90;;;;;;5055750;28;20186;-73
2022/06/14 01:08:48;;;;;;;4.30;2.60;;;11.50;99.90;;;;;;5071392;28;20240;-74
2022/06/14 01:11:47;;;;;;;8.83;2.17;;;11.50;99.90;;;;;;5052887;28;20233;-74
2022/06/14 01:14:54;;;;;;;4.23;2.20;;;11.50;99.90;;;;;;5055120;28;20646;-73
2022/06/14 01:17:44;;;;;;;5.97;2.60;;;11.40;99.90;;;;;;5026344;28;20197;-74
2022/06/14 01:20:29;;;;;;;6.50;2.47;;;11.40;99.90;;;;;;5044907;28;20198;-74
2022/06/14 01:23:17;;;;;;;3.50;2.20;;;11.30;99.90;;;;;;5058251;28;20194;-74
2022/06/14 01:26:16;;;;;;;7.00;2.80;;;11.30;99.90;;;;;;5067581;28;20182;-74
2022/06/14 01:29:03;;;;;;;3.00;1.70;;;11.20;99.90;;;;;;5048674;28;20222;-74
2022/06/14 01:31:50;;;;;;;4.70;2.43;;;11.20;99.90;;;;;;5052327;28;20240;-73
2022/06/14 01:34:42;;;;;;;3.07;2.20;;;11.20;99.90;;;;;;5061395;28;20687;-75
2022/06/14 01:37:28;;;;;;;4.20;2.30;;;11.20;99.90;;;;;;5066931;28;20272;-73
2022/06/14 01:40:14;;;;;;;3.50;2.30;;;11.20;99.90;;;;;;5054204;28;20214;-74
2022/06/14 01:43:20;;;;;;;4.47;2.37;;;11.20;99.90;;;;;;5054074;28;20186;-74
2022/06/14 01:46:19;;;;;;;4.20;2.17;;;11.10;99.90;;;;;;5057946;28;20189;-73
2022/06/14 01:52:48;;;;;;;5.80;2.70;;;11.00;99.90;;;;;;5067466;28;20239;-74
2022/06/14 01:55:50;;;;;;;5.43;2.60;;;10.90;99.90;;;;;;5048180;28;20214;-74
2022/06/14 01:59:09;;;;;;;4.73;2.40;;;10.90;99.90;;;;;;5056191;28;20217;-74
2022/06/14 02:02:04;;;;;;;6.93;2.87;;;10.80;99.90;;;;;;5048057;28;20222;-74
2022/06/14 02:05:06;;;;;;;3.20;2.80;;;10.80;99.90;;;;;;5052711;28;20213;-74
2022/06/14 02:08:06;;;;;;;5.63;2.67;;;10.70;99.90;;;;;;5051318;28;20213;-74
2022/06/14 02:11:08;;;;;;;7.00;2.50;;;10.70;99.90;;;;;;5055724;28;20189;-73
2022/06/14 02:14:16;;;;;;;11.83;3.03;;;10.70;99.90;;;;;;5054864;28;20193;-74
2022/06/14 02:17:14;;;;;;;7.43;2.80;;;10.70;99.90;;;;;;5053156;28;20266;-74
2022/06/14 02:20:13;;;;;;;9.33;2.97;;;10.70;99.90;;;;;;5045144;28;20749;-74
2022/06/14 02:23:04;;;;;;;5.13;2.80;;;10.70;99.90;;;;;;5054602;28;20200;-73
2022/06/14 02:25:52;;;;;;;6.63;3.00;;;10.70;99.90;;;;;;5051190;28;20214;-73
2022/06/14 02:28:57;;;;;;;11.07;2.97;;;10.70;99.90;;;;;;5070242;28;20249;-73
2022/06/14 02:31:51;;;;;;;8.37;2.83;;;10.70;99.90;;;;;;5054307;28;20221;-74
2022/06/14 02:34:54;;;;;;;7.33;2.90;;;10.70;99.90;;;;;;5052605;28;20189;-74
2022/06/14 02:37:54;;;;;;;4.87;2.60;;;10.60;99.90;;;;;;5052106;28;20198;-74
2022/06/14 02:40:54;;;;;;;5.23;2.93;;;10.60;99.90;;;;;;5048634;28;20178;-74
2022/06/14 02:44:07;;;;;;;6.17;2.83;;;10.50;99.90;;;;;;5067949;28;20306;-73
2022/06/14 02:47:01;;;;;;;5.73;2.80;;;10.50;99.90;;;;;;5049657;28;20203;-74
2022/06/14 02:49:52;;;;;;;5.93;2.80;;;10.50;99.90;;;;;;5071056;28;20241;-73
2022/06/14 02:52:43;;;;;;;5.20;2.90;;;10.50;99.90;;;;;;5053293;28;20233;-73
2022/06/14 02:55:33;;;;;;;5.87;2.83;;;10.40;99.90;;;;;;5071832;28;20255;-74
2022/06/14 02:58:38;;;;;;;4.30;3.17;;;10.40;99.90;;;;;;5049638;28;20244;-73
2022/06/14 03:01:36;;;;;;;4.13;2.57;;;10.40;99.90;;;;;;5069831;28;20213;-73
2022/06/14 03:04:28;;;;;;;6.47;2.77;;;10.40;99.90;;;;;;5061288;28;20229;-73
2022/06/14 03:07:24;;;;;;;4.23;2.87;;;10.40;99.90;;;;;;5046857;28;20287;-73
2022/06/14 03:10:08;;;;;;;4.63;3.30;;;10.40;99.90;;;;;;5052514;28;20201;-74
2022/06/14 03:13:17;;;;;;;6.13;2.67;;;10.40;99.90;;;;;;5051350;28;20702;-73
2022/06/14 03:16:37;;;;;;;4.67;2.90;;;10.40;99.90;;;;;;5050144;28;20395;-73
2022/06/14 03:19:55;;;;;;;6.80;3.27;;;10.30;99.90;;;;;;4987026;28;20283;-75
2022/06/14 03:23:02;;;;;;;6.23;2.93;;;10.30;99.90;;;;;;5049780;28;20336;-74
2022/06/14 03:26:10;;;;;;;3.03;2.70;;;10.30;99.90;;;;;;5050618;28;20244;-73
2022/06/14 03:29:04;;;;;;;4.27;2.83;;;10.30;99.90;;;;;;5065852;28;20221;-73
2022/06/14 03:32:02;;;;;;;6.13;3.03;;;10.30;99.90;;;;;;5046381;28;20653;-74
2022/06/14 03:34:59;;;;;;;5.40;3.23;;;10.30;99.90;;;;;;5075995;28;20189;-72
2022/06/14 03:37:44;;;;;;;5.97;3.00;;;10.30;99.90;;;;;;5044721;28;20194;-74
2022/06/14 03:40:29;;;;;;;3.70;3.30;;;10.30;99.90;;;;;;5049186;28;20197;-74
2022/06/14 03:43:14;;;;;;;6.60;3.40;;;10.30;99.90;;;;;;5049635;28;20193;-73
2022/06/14 03:46:11;;;;;;;5.57;3.17;;;10.30;99.90;;;;;;5065353;28;20283;-74
2022/06/14 03:49:03;;;;;;;6.47;3.60;;;10.30;99.90;;;;;;5051133;28;20225;-74
2022/06/14 03:52:14;;;;;;;4.60;2.83;;;10.30;99.90;;;;;;5053433;28;20198;-74
2022/06/14 03:55:30;;;;;;;6.73;3.50;;;10.30;99.90;;;;;;5064515;28;20216;-73
2022/06/14 03:58:27;;;;;;;7.17;3.70;;;10.40;99.90;;;;;;5054083;28;20270;-74
2022/06/14 04:01:30;;;;;;;5.23;3.23;;;10.40;99.90;;;;;;5064880;22;20768;-76
2022/06/14 04:04:47;;;;;;;7.70;3.70;;;10.40;99.90;;;;;;5025459;28;20267;-76
2022/06/14 04:07:50;;;;;;;9.07;3.63;;;10.40;99.90;;;;;;4998192;28;20242;-75
2022/06/14 04:10:51;;;;;;;5.63;3.30;;;10.40;99.90;;;;;;5031466;28;20252;-74
2022/06/14 04:14:15;;;;;;;7.80;3.60;;;10.40;99.90;;;;;;5028485;28;20206;-75
2022/06/14 04:17:30;;;;;;;6.77;3.43;;;10.50;99.90;;;;;;5006879;28;20655;-75
2022/06/14 04:20:39;;;;;;;8.60;3.80;;;10.50;99.90;;;;;;5038570;28;20420;-75
2022/06/14 04:23:51;;;;;;;9.57;3.63;;;10.50;99.90;;;;;;5042915;28;20254;-75
2022/06/14 04:26:46;;;;;;;10.27;3.90;;;10.60;99.90;;;;;;5028716;28;20178;-75
2022/06/14 04:29:47;;;;;;;6.13;4.33;;;10.60;99.90;;;;;;5023943;28;20316;-74
2022/06/14 04:32:44;;;;;;;7.23;3.63;;;10.60;99.90;;;;;;5027551;28;20238;-75
2022/06/14 04:35:46;;;;;;;7.30;3.90;;;10.70;99.90;;;;;;5026031;28;20183;-74
2022/06/14 04:39:20;;;;;;;8.10;3.40;;;10.70;99.90;;;;;;5038491;28;20662;-75
2022/06/14 04:42:17;;;;;;;12.33;3.77;;;10.70;99.90;;;;;;5005952;28;20239;-74
2022/06/14 04:45:08;;;;;;;7.33;4.23;;;10.80;99.90;;;;;;5019766;28;20196;-73
2022/06/14 04:48:07;;;;;;;5.93;4.57;;;10.80;99.90;;;;;;5026410;28;20789;-74
2022/06/14 04:51:12;;;;;;;7.03;3.80;;;10.90;99.90;;;;;;5045858;28;20217;-74
2022/06/14 04:54:10;;;;;;;5.80;4.03;;;10.90;99.90;;;;;;5026501;28;20225;-75
2022/06/14 04:57:06;;;;;;;7.10;4.27;;;11.00;99.90;;;;;;5027325;28;20191;-74
2022/06/14 05:00:00;;;;;;;9.80;4.20;;;11.10;99.90;;;;;;5034865;28;20187;-73
2022/06/14 05:03:14;;;;;;;12.37;4.03;;;11.20;99.90;;;;;;5041218;28;20214;-74
2022/06/14 05:06:07;;;;;;;8.13;4.20;;;11.30;99.90;;;;;;5029670;28;20195;-73
2022/06/14 05:09:00;;;;;;;5.37;4.10;;;11.30;99.90;;;;;;5039956;28;20706;-73
2022/06/14 05:11:52;;;;;;;5.60;3.87;;;11.40;99.90;;;;;;5029610;28;20250;-74
2022/06/14 05:14:50;;;;;;;8.70;4.03;;;11.40;99.90;;;;;;5031807;28;20564;-74
2022/06/14 05:17:41;;;;;;;10.57;4.03;;;11.40;99.90;;;;;;5021189;28;20215;-73
2022/06/14 05:20:28;;;;;;;8.87;4.33;;;11.50;99.90;;;;;;5043292;28;20686;-73
2022/06/14 05:23:27;;;;;;;6.77;3.90;;;11.50;99.90;;;;;;5032504;28;20732;-74
2022/06/14 05:26:17;;;;;;;9.57;4.50;;;11.50;99.90;;;;;;5039902;28;20191;-74
2022/06/14 05:29:25;;;;;;;8.23;4.40;;;11.60;99.90;;;;;;5031975;28;20276;-74
2022/06/14 05:32:29;;;;;;;12.03;4.00;;;11.70;99.90;;;;;;5044577;28;20223;-74
2022/06/14 05:35:41;;;;;;;11.20;4.60;;;11.70;99.90;;;;;;5042430;28;20189;-77
2022/06/14 05:38:50;;;;;;;7.43;4.63;;;11.80;99.90;;;;;;5043089;28;20233;-74
2022/06/14 05:41:48;;;;;;;11.53;3.83;;;11.80;99.90;;;;;;5028666;28;20254;-74
2022/06/14 05:44:39;;;;;;;7.53;4.00;;;11.90;99.90;;;;;;5032724;28;20190;-74
2022/06/14 05:47:33;;;;;;;9.27;4.10;;;12.00;99.90;;;;;;5030606;28;20191;-75
2022/06/14 05:50:24;;;;;;;7.90;3.90;;;12.10;99.90;;;;;;5031107;28;20182;-74
2022/06/14 05:53:23;;;;;;;11.73;4.20;;;12.10;99.90;;;;;;5031731;28;20227;-74
2022/06/14 05:56:26;;;;;;;14.33;4.60;;;12.20;99.90;;;;;;5035698;28;20209;-74
2022/06/14 05:59:31;;;;;;;9.20;3.60;;;12.30;99.90;;;;;;5049613;28;20217;-75
2022/06/14 06:02:54;;;;;;;10.73;3.93;;;12.30;99.90;;;;;;5047885;28;20206;-75
2022/06/14 06:05:50;;;;;;;10.37;3.90;;;12.40;99.90;;;;;;5011454;28;20194;-74
2022/06/14 06:08:40;;;;;;;8.10;3.90;;;12.50;99.90;;;;;;5048828;28;20198;-74
2022/06/14 06:11:29;;;;;;;7.37;4.03;;;12.60;99.90;;;;;;5047195;28;20237;-74
2022/06/14 06:14:29;;;;;;;7.70;3.60;;;12.70;99.90;;;;;;5029117;28;20239;-74
2022/06/14 06:17:41;;;;;;;7.90;3.50;;;12.70;99.90;;;;;;5025820;28;20187;-74
2022/06/14 06:20:38;;;;;;;10.00;3.53;;;12.80;99.90;;;;;;5029101;28;20264;-73
2022/06/14 06:23:54;;;;;;;9.73;3.20;;;13.00;99.90;;;;;;5026646;28;20718;-74
2022/06/14 06:26:42;;;;;;;10.20;3.57;;;13.10;99.90;;;;;;5021856;28;20278;-74
2022/06/14 06:29:37;;;;;;;8.17;2.90;;;13.20;99.90;;;;;;5039683;28;20593;-74
2022/06/14 06:32:22;;;;;;;7.50;2.97;;;13.20;99.90;;;;;;5027386;28;20183;-74
2022/06/14 06:35:09;;;;;;;10.40;3.37;;;13.40;99.90;;;;;;5049413;28;20214;-73
2022/06/14 06:38:20;;;;;;;7.33;2.87;;;13.50;99.90;;;;;;5027928;28;20191;-74
2022/06/14 06:44:20;;;;;;;8.83;2.80;;;13.60;99.90;;;;;;5048016;28;20250;-74
2022/06/14 06:47:07;;;;;;;12.33;2.70;;;13.70;99.90;;;;;;5035524;28;20214;-73
2022/06/14 06:50:00;;;;;;;9.93;2.77;;;13.80;99.90;;;;;;5031743;28;20639;-73
2022/06/14 06:52:53;;;;;;;12.57;3.30;;;13.90;99.90;;;;;;5033932;28;20230;-74
2022/06/14 06:55:57;;;;;;;8.73;3.10;;;13.90;99.90;;;;;;5038369;28;20183;-74
2022/06/14 06:58:54;;;;;;;9.17;3.07;;;14.00;99.90;;;;;;5030378;28;20191;-73
2022/06/14 07:01:40;;;;;;;7.53;2.57;;;14.10;99.90;;;;;;5043602;28;20291;-74
2022/06/14 07:07:44;;;;;;;12.80;3.07;;;14.30;99.90;;;;;;5042610;28;20195;-74
2022/06/14 07:10:43;;;;;;;9.70;2.20;;;14.30;99.90;;;;;;5031520;28;20194;-74
2022/06/14 07:13:56;;;;;;;10.40;2.83;;;14.30;99.90;;;;;;5028803;28;20223;-74
2022/06/14 07:16:51;;;;;;;13.87;2.73;;;14.30;99.90;;;;;;5023073;28;20225;-74
2022/06/14 07:19:49;;;;;;;13.13;2.80;;;14.40;99.90;;;;;;5028557;28;20674;-74
2022/06/14 07:22:33;;;;;;;7.93;2.77;;;14.50;99.90;;;;;;5032250;28;20355;-75
2022/06/14 07:25:45;;;;;;;8.30;2.23;;;14.60;99.90;;;;;;5041975;28;20215;-75
2022/06/14 07:28:29;;;;;;;8.23;2.37;;;14.80;99.90;;;;;;5041798;28;20245;-74
2022/06/14 07:31:24;;;;;;;8.20;2.23;;;14.80;99.90;;;;;;5040091;28;20207;-73
2022/06/14 07:34:09;;;;;;;11.07;2.47;;;14.90;99.90;;;;;;5034075;28;20708;-74
2022/06/14 07:37:05;;;;;;;13.07;2.57;;;14.90;99.90;;;;;;5025426;28;20214;-74
2022/06/14 07:39:55;;;;;;;9.93;2.27;;;15.00;99.90;;;;;;5032581;28;20325;-74
2022/06/14 07:42:51;;;;;;;9.23;1.97;;;15.00;99.90;;;;;;5031741;28;20230;-73
2022/06/14 07:45:46;;;;;;;14.63;2.30;;;15.10;99.90;;;;;;5030117;28;20191;-73
2022/06/14 07:48:46;;;;;;;11.07;1.87;;;15.10;99.90;;;;;;5032553;28;20258;-76
2022/06/14 07:51:59;;;;;;;12.57;2.50;;;15.20;99.90;;;;;;5044442;28;20186;-75
2022/06/14 07:54:47;;;;;;;10.97;2.03;;;15.20;99.90;;;;;;5042113;28;20270;-75
2022/06/14 07:57:36;;;;;;;10.67;2.33;;;15.30;99.90;;;;;;5041957;28;20179;-75
2022/06/14 08:03:46;;;;;;;15.63;2.70;;;15.40;99.90;;;;;;5033174;28;20215;-75
2022/06/14 08:06:56;;;;;;;8.93;2.13;;;15.50;99.90;;;;;;5022962;28;20226;-75
2022/06/14 08:10:16;;;;;;;9.67;2.03;;;15.40;99.90;;;;;;5032255;28;20207;-75
2022/06/14 08:13:08;;;;;;;9.03;2.10;;;15.40;99.90;;;;;;4970118;28;20797;-75
2022/06/14 08:15:58;;;;;;;7.40;2.27;;;15.50;99.90;;;;;;5027507;28;20263;-75
2022/06/14 08:18:54;;;;;;;15.03;2.73;;;15.50;99.90;;;;;;5017816;28;20207;-75
2022/06/14 08:22:02;;;;;;;12.57;2.80;;;15.50;99.90;;;;;;5034287;28;20223;-75
2022/06/14 08:24:52;;;;;;;7.80;1.63;;;15.60;99.90;;;;;;5028332;28;20200;-75
2022/06/14 08:27:41;;;;;;;7.67;2.07;;;15.70;99.90;;;;;;5026483;28;20613;-76
2022/06/14 08:30:38;;;;;;;10.70;2.17;;;15.70;99.90;;;;;;5036513;28;20674;-75
2022/06/14 08:33:37;;;;;;;9.53;2.07;;;15.60;99.90;;;;;;5041918;22;20277;-77
2022/06/14 08:36:27;;;;;;;10.50;2.50;;;15.60;99.90;;;;;;5028103;28;20320;-78
2022/06/14 08:39:25;;;;;;;10.87;1.90;;;15.70;99.90;;;;;;5024173;28;20262;-78
2022/06/14 08:42:27;;;;;;;8.07;1.97;;;15.80;99.90;;;;;;5022140;28;20292;-78
2022/06/14 08:45:22;;;;;;;13.93;2.20;;;15.90;99.90;;;;;;5026877;28;20319;-77
2022/06/14 08:48:15;;;;;;;7.03;1.90;;;16.10;99.90;;;;;;5022811;28;20273;-77
2022/06/14 08:51:27;;;;;;;5.90;1.90;;;16.10;99.90;;;;;;5031860;28;20188;-77
2022/06/14 08:54:24;;;;;;;8.23;2.27;;;16.20;99.90;;;;;;5030776;28;20191;-78
2022/06/14 08:57:23;;;;;;;10.60;2.20;;;16.30;99.90;;;;;;5031957;28;20245;-80
2022/06/14 09:00:15;;;;;;;9.20;2.37;;;16.30;99.90;;;;;;5036068;28;20218;-79
2022/06/14 09:03:29;;;;;;;9.33;2.33;;;16.40;99.90;;;;;;5034650;28;20202;-79
2022/06/14 09:06:24;;;;;;;10.60;2.70;;;16.40;99.90;;;;;;5031441;28;20282;-78
2022/06/14 09:09:45;;;;;;;14.47;2.43;;;16.40;99.90;;;;;;5034090;28;20268;-79
2022/06/14 09:13:04;;;;;;;8.47;2.47;;;16.40;99.90;;;;;;5030793;28;20784;-78
2022/06/14 09:16:11;;;;;;;9.40;2.37;;;16.40;99.90;;;;;;5030335;28;20311;-78
2022/06/14 09:18:55;;;;;;;6.97;1.60;;;16.40;99.90;;;;;;5038678;28;20214;-78
2022/06/14 09:22:18;;;;;;;6.47;1.77;;;16.50;99.90;;;;;;5031293;28;20269;-79
2022/06/14 09:25:15;;;;;;;7.00;2.10;;;16.60;99.90;;;;;;5034408;28;20191;-78
2022/06/14 09:28:08;;;;;;;7.93;1.90;;;16.70;99.90;;;;;;5035097;28;20226;-78
2022/06/14 09:31:12;;;;;;;13.80;1.90;;;16.70;99.90;;;;;;5029637;28;20200;-78
2022/06/14 09:34:09;;;;;;;6.50;1.97;;;16.80;99.90;;;;;;5028848;28;20308;-80
2022/06/14 09:37:18;;;;;;;6.80;1.63;;;16.90;99.90;;;;;;5035731;28;20183;-78
2022/06/14 09:40:22;;;;;;;9.17;1.77;;;16.80;99.90;;;;;;5034142;28;20327;-79
2022/06/14 09:43:22;;;;;;;13.23;1.63;;;16.70;99.90;;;;;;5030809;28;20229;-78
2022/06/14 09:46:18;;;;;;;5.53;1.97;;;16.70;99.90;;;;;;5027050;28;20234;-79
2022/06/14 09:49:42;;;;;;;5.80;1.50;;;16.70;99.90;;;;;;5026471;28;20231;-78
2022/06/14 09:53:04;;;;;;;10.00;2.30;;;16.70;99.90;;;;;;5023236;28;20544;-79
2022/06/14 09:55:56;;;;;;;4.83;1.80;;;16.70;99.90;;;;;;5033228;28;20239;-78
2022/06/14 09:58:46;;;;;;;4.63;1.90;;;16.70;99.90;;;;;;5023902;28;20645;-78
2022/06/14 10:01:58;;;;;;;6.23;1.47;;;16.70;99.90;;;;;;5030415;28;20202;-77
2022/06/14 10:05:04;;;;;;;4.93;1.90;;;16.80;99.90;;;;;;5030052;28;20308;-78
2022/06/14 10:08:15;;;;;;;7.53;1.97;;;17.00;99.90;;;;;;5029386;28;20267;-78
2022/06/14 10:11:22;;;;;;;6.67;1.30;;;17.10;99.90;;;;;;5030726;28;20603;-78
2022/06/14 10:14:28;;;;;;;6.37;1.40;;;17.10;99.90;;;;;;5025713;28;20187;-77
2022/06/14 10:17:49;;;;;;;4.13;1.40;;;17.20;99.90;;;;;;5027288;28;20184;-78
2022/06/14 10:20:52;;;;;;;3.67;1.63;;;17.30;99.90;;;;;;4955988;28;20252;-79
2022/06/14 10:23:45;;;;;;;8.67;1.70;;;17.20;99.90;;;;;;5029692;28;20180;-78
2022/06/14 10:29:58;;;;;;;4.70;1.80;;;17.20;99.90;;;;;;5031207;28;20331;-78
2022/06/14 10:33:21;;;;;;;6.97;1.80;;;17.30;99.90;;;;;;5032101;28;20195;-78
2022/06/14 10:36:29;;;;;;;9.03;1.43;;;17.20;99.90;;;;;;4994320;28;20195;-78
2022/06/14 10:39:48;;;;;;;5.03;1.50;;;17.20;99.90;;;;;;5008200;28;20732;-78
2022/06/14 10:42:52;;;;;;;7.93;1.50;;;17.30;99.90;;;;;;5041122;28;20271;-79
2022/06/14 10:45:42;;;;;;;5.87;1.60;;;17.40;99.90;;;;;;5025322;28;20545;-76
2022/06/14 10:48:46;;;;;;;5.27;1.30;;;17.40;99.90;;;;;;5026324;28;20219;-77
2022/06/14 10:51:56;;;;;;;4.37;1.30;;;17.50;99.90;;;;;;5031526;28;20195;-78
2022/06/14 10:55:01;;;;;;;6.33;1.50;;;17.60;99.90;;;;;;5033993;28;20242;-77
2022/06/14 10:58:15;;;;;;;6.33;1.50;;;17.60;99.90;;;;;;5031113;28;20190;-77
2022/06/14 11:01:34;;;;;;;6.10;1.33;;;17.60;99.90;;;;;;5028068;28;20656;-77
2022/06/14 11:04:21;;;;;;;10.40;1.33;;;17.70;99.90;;;;;;5029791;28;20204;-77
2022/06/14 11:07:27;;;;;;;5.53;1.60;;;17.70;99.90;;;;;;5029463;28;20195;-77
2022/06/14 11:10:35;;;;;;;4.17;1.40;;;17.70;99.90;;;;;;5027987;28;20341;-77
2022/06/14 11:13:28;;;;;;;8.93;1.50;;;17.80;99.90;;;;;;5033938;28;20222;-77
2022/06/14 11:16:21;;;;;;;9.57;1.70;;;17.80;99.90;;;;;;5023782;28;20246;-77
2022/06/14 11:19:30;;;;;;;3.90;1.43;;;17.80;99.90;;;;;;5025851;28;20223;-78
2022/06/14 11:22:40;;;;;;;9.50;1.73;;;17.90;99.90;;;;;;5025573;28;20195;-75
2022/06/14 11:25:48;;;;;;;4.77;1.47;;;17.90;99.90;;;;;;5022574;28;20263;-76
2022/06/14 11:28:44;;;;;;;7.70;1.90;;;17.90;99.90;;;;;;5027147;28;20231;-76
2022/06/14 11:31:37;;;;;;;6.10;1.70;;;17.90;99.90;;;;;;5026824;28;20263;-76
2022/06/14 11:34:42;;;;;;;8.13;1.90;;;18.00;99.90;;;;;;5028549;28;20318;-75
2022/06/14 11:37:46;;;;;;;12.10;2.17;;;18.10;99.90;;;;;;5025697;28;20199;-76
2022/06/14 11:40:33;;;;;;;5.80;1.80;;;18.20;99.90;;;;;;5026386;28;20250;-76
2022/06/14 11:43:41;;;;;;;8.83;1.80;;;18.30;99.90;;;;;;5024331;28;20264;-76
2022/06/14 11:46:50;;;;;;;8.53;1.70;;;18.30;99.90;;;;;;5021329;28;20188;-76
2022/06/14 11:49:51;;;;;;;4.90;1.27;;;18.30;99.90;;;;;;5027508;28;20215;-75
2022/06/14 11:53:05;;;;;;;3.97;1.23;;;18.40;99.90;;;;;;5029305;28;20187;-75
2022/06/14 11:55:59;;;;;;;6.23;1.60;;;18.50;99.90;;;;;;5026405;28;20191;-75
2022/06/14 11:58:54;;;;;;;6.03;1.23;;;18.50;99.90;;;;;;5028284;28;20266;-75
2022/06/14 12:02:00;;;;;;;4.38;1.30;;;18.50;99.90;;;;;;5024142;28;20203;-75
2022/06/14 12:05:18;;;;;;;5.87;1.60;;;18.60;99.90;;;;;;5028141;28;20257;-75
2022/06/14 12:08:39;;;;;;;3.87;1.20;;;18.70;99.90;;;;;;5020601;28;20266;-76
2022/06/14 12:11:34;;;;;;;6.32;1.35;;;18.80;99.90;;;;;;5025781;28;20540;-76
2022/06/14 12:14:51;;;;;;;4.30;1.40;;;18.90;99.90;;;;;;5024289;28;20183;-76
2022/06/14 12:17:42;;;;;;;4.07;1.40;;;19.00;99.90;;;;;;5008743;28;20195;-77
2022/06/14 12:20:30;;;;;;;3.85;1.20;;;19.10;99.90;;;;;;5028687;28;20230;-77
2022/06/14 12:23:28;;;;;;;5.75;1.30;;;19.00;99.90;;;;;;5022124;28;20274;-76
2022/06/14 12:26:36;;;;;;;4.15;1.60;;;18.90;99.90;;;;;;5024334;28;20305;-76
2022/06/14 12:29:30;;;;;;;4.15;1.67;;;18.80;99.90;;;;;;5027354;28;20219;-76
2022/06/14 12:32:31;;;;;;;6.65;1.70;;;18.90;99.90;;;;;;5028097;28;20203;-76
2022/06/14 12:35:24;;;;;;;4.25;1.55;;;18.90;99.90;;;;;;5032517;28;20203;-76
2022/06/14 12:38:17;;;;;;;5.38;1.50;;;18.90;99.90;;;;;;5028067;28;20215;-75
2022/06/14 12:41:13;;;;;;;7.25;1.50;;;18.90;99.90;;;;;;5028647;28;20658;-76
2022/06/14 12:44:25;;;;;;;6.10;1.40;;;19.00;99.90;;;;;;5033035;28;20195;-75
2022/06/14 12:47:16;;;;;;;3.67;1.55;;;18.90;99.90;;;;;;5029246;28;20191;-76
2022/06/14 12:50:18;;;;;;;8.30;1.88;;;19.00;99.90;;;;;;5028305;28;20251;-76
2022/06/14 12:53:18;;;;;;;5.65;1.95;;;18.90;99.90;;;;;;5043992;28;20218;-75
2022/06/14 12:56:16;;;;;;;5.55;1.30;;;18.90;99.90;;;;;;5027550;28;20561;-76
2022/06/14 12:59:26;;;;;;;5.65;1.50;;;18.80;99.90;;;;;;5027694;28;20298;-75
2022/06/14 13:02:28;;;;;;;4.13;1.23;;;18.90;99.90;;;;;;5025396;28;20199;-76
2022/06/14 13:05:18;;;;;;;3.35;1.25;;;18.90;99.90;;;;;;5027153;28;20202;-76
2022/06/14 13:08:31;;;;;;;4.57;1.20;;;19.10;99.90;;;;;;5024195;28;20280;-76
2022/06/14 13:11:54;;;;;;;6.95;1.80;;;19.20;99.90;;;;;;5026641;28;20195;-76
2022/06/14 13:15:00;;;;;;;5.85;1.55;;;19.40;99.90;;;;;;5029966;28;20203;-76
2022/06/14 13:17:52;;;;;;;6.10;1.17;;;19.50;99.90;;;;;;5029921;28;20199;-76
2022/06/14 13:20:47;;;;;;;3.88;1.25;;;19.50;99.90;;;;;;5031810;28;20199;-76
2022/06/14 13:23:48;;;;;;;4.75;1.60;;;19.60;99.90;;;;;;5028270;28;20215;-76
2022/06/14 13:26:47;;;;;;;2.83;1.15;;;19.70;99.90;;;;;;5028381;28;20291;-76
2022/06/14 13:29:54;;;;;;;6.15;1.58;;;19.90;99.90;;;;;;5809570;22;20279;-76
2022/06/14 13:32:56;;;;;;;5.35;1.42;;;20.10;99.90;;;;;;5043993;28;20225;-77
2022/06/14 13:36:00;;;;;;;5.97;1.40;;;20.20;99.90;;;;;;5046546;28;20202;-76
2022/06/14 13:39:05;;;;;;;3.70;1.60;;;20.30;99.90;;;;;;5036934;28;20205;-76
2022/06/14 13:42:03;;;;;;;7.25;1.50;;;20.40;99.90;;;;;;5008402;28;20731;-76
2022/06/14 13:45:20;;;;;;;5.13;1.40;;;20.40;99.90;;;;;;5010059;28;20207;-76
2022/06/14 13:48:12;;;;;;;6.95;1.60;;;20.50;99.90;;;;;;5006484;28;20266;-76
2022/06/14 13:51:26;;;;;;;4.00;1.38;;;20.60;99.90;;;;;;5025131;28;20324;-76
2022/06/14 13:54:32;;;;;;;9.38;2.00;;;20.50;99.90;;;;;;5014849;28;20620;-76
2022/06/14 13:57:28;;;;;;;7.43;1.85;;;20.50;99.90;;;;;;5019744;28;20191;-76
2022/06/14 14:00:25;;;;;;;7.20;1.63;;;20.50;99.90;;;;;;5014042;28;20270;-77
2022/06/14 14:03:27;;;;;;;7.90;2.10;;;20.60;99.90;;;;;;5021589;28;20192;-76
2022/06/14 14:06:23;;;;;;;3.40;1.52;;;20.60;99.90;;;;;;5012333;28;20234;-77
2022/06/14 14:09:22;;;;;;;4.32;1.52;;;20.70;99.90;;;;;;5007957;28;20215;-76
2022/06/14 14:12:07;;;;;;;6.53;1.40;;;20.80;99.90;;;;;;5013091;28;20239;-76
2022/06/14 14:15:12;;;;;;;5.40;1.52;;;20.80;99.90;;;;;;5007124;28;20765;-76
2022/06/14 14:18:19;;;;;;;4.72;1.42;;;20.80;99.90;;;;;;5018612;28;20257;-76
2022/06/14 14:21:20;;;;;;;6.30;1.52;;;20.90;99.90;;;;;;5004658;28;20210;-76
2022/06/14 14:24:27;;;;;;;4.50;1.63;;;20.90;99.90;;;;;;5007176;28;20205;-76
2022/06/14 14:27:33;;;;;;;4.20;1.63;;;21.00;99.90;;;;;;5009321;28;20188;-76
2022/06/14 14:30:55;;;;;;;6.20;1.65;;;21.00;99.90;;;;;;5021460;28;20266;-75
2022/06/14 14:33:53;;;;;;;5.07;1.23;;;20.80;99.90;;;;;;5017495;28;20767;-77
2022/06/14 14:37:11;;;;;;;5.68;1.92;;;20.80;99.90;;;;;;5012038;28;20241;-76
2022/06/14 14:39:58;;;;;;;4.85;1.60;;;20.80;99.90;;;;;;5029004;28;20331;-76
2022/06/14 14:42:52;;;;;;;5.05;1.58;;;20.90;99.90;;;;;;5019374;28;20199;-77
2022/06/14 14:46:02;;;;;;;2.55;1.23;;;21.00;99.90;;;;;;5007711;28;20695;-77
2022/06/14 14:49:16;;;;;;;2.78;1.20;;;21.20;99.90;;;;;;5011088;28;20261;-77
2022/06/14 14:52:04;;;;;;;3.95;1.42;;;21.20;99.90;;;;;;5006549;28;20241;-77
2022/06/14 14:55:06;;;;;;;5.13;1.60;;;21.20;99.90;;;;;;5007392;28;20194;-77
2022/06/14 14:58:24;;;;;;;5.85;1.55;;;21.20;99.90;;;;;;5010483;28;20199;-77
2022/06/14 15:07:58;;;;;;;3.88;1.50;;;21.30;99.90;;;;;;5018077;28;20190;-78
2022/06/14 15:10:54;;;;;;;3.92;1.38;;;21.40;99.90;;;;;;5010538;28;20254;-77
2022/06/14 15:13:43;;;;;;;4.80;1.50;;;21.50;99.90;;;;;;5025400;28;20218;-78
2022/06/14 15:16:35;;;;;;;3.78;1.25;;;21.40;99.90;;;;;;5024628;28;20241;-78
2022/06/14 15:22:56;;;;;;;5.50;1.35;;;21.30;99.90;;;;;;5028714;28;20197;-77
2022/06/14 15:25:41;;;;;;;4.70;1.27;;;21.30;99.90;;;;;;5010062;28;20191;-77
2022/06/14 15:28:41;;;;;;;4.55;1.40;;;21.30;99.90;;;;;;5024511;28;20202;-78
2022/06/14 15:31:46;;;;;;;6.70;1.40;;;21.30;99.90;;;;;;5022617;28;20261;-77
2022/06/14 15:34:40;;;;;;;2.35;0.95;;;21.20;99.90;;;;;;5010106;28;20175;-77
2022/06/14 15:37:30;;;;;;;6.60;1.65;;;21.10;99.90;;;;;;5019184;28;20840;-78
2022/06/14 15:40:14;;;;;;;3.42;1.50;;;21.00;99.90;;;;;;5014737;28;20223;-77
2022/06/14 15:43:07;;;;;;;6.25;1.17;;;20.90;99.90;;;;;;5012439;28;20198;-78
2022/06/14 15:45:53;;;;;;;5.68;1.13;;;20.90;99.90;;;;;;5022582;28;20252;-78
2022/06/14 15:48:38;;;;;;;5.85;1.58;;;20.90;99.90;;;;;;5010852;28;20211;-78
2022/06/14 15:51:23;;;;;;;5.05;1.05;;;20.90;99.90;;;;;;4994875;28;20293;-77
2022/06/14 15:54:22;;;;;;;4.22;1.02;;;20.80;99.90;;;;;;5001956;28;20256;-78
2022/06/14 15:57:33;;;;;;;8.15;1.40;;;20.80;99.90;;;;;;4997492;28;20195;-77
2022/06/14 16:00:21;;;;;;;1.83;0.80;;;20.80;99.90;;;;;;5006503;28;20589;-77